createdAt,value
2019-03-10T00:02:19.486Z,62.42
2019-03-10T00:04:46.196Z,62.26
2019-03-10T00:07:13.863Z,62.25
2019-03-10T00:09:40.520Z,62.53
2019-03-10T00:12:07.206Z,62.50
2019-03-10T00:14:33.852Z,62.45
2019-03-10T00:17:00.534Z,62.57
2019-03-10T00:19:27.172Z,62.51
2019-03-10T00:21:53.890Z,62.50
2019-03-10T00:24:20.633Z,62.53
2019-03-10T00:26:47.397Z,62.73
2019-03-10T00:29:14.063Z,62.77
2019-03-10T00:31:40.747Z,62.66
2019-03-10T00:34:07.397Z,62.78
2019-03-10T00:36:34.021Z,62.77
2019-03-10T00:39:08.908Z,62.76
2019-03-10T00:42:04.780Z,62.96
2019-03-10T00:45:02.845Z,63.10
2019-03-10T00:48:04.670Z,62.96
2019-03-10T00:51:08.219Z,62.90
2019-03-10T00:53:34.884Z,63.13
2019-03-10T00:56:01.415Z,63.28
2019-03-10T00:58:28.180Z,63.22
2019-03-10T01:00:54.722Z,63.25
2019-03-10T01:03:21.410Z,63.58
2019-03-10T01:05:48.106Z,63.67
2019-03-10T01:08:14.682Z,63.89
2019-03-10T01:10:41.423Z,63.83
2019-03-10T01:13:08.097Z,63.85
2019-03-10T01:15:34.857Z,64.05
2019-03-10T01:18:02.505Z,64.43
2019-03-10T01:20:29.039Z,64.56
2019-03-10T01:22:55.677Z,64.63
2019-03-10T01:25:22.225Z,64.92
2019-03-10T01:27:48.769Z,65.13
2019-03-10T01:30:17.351Z,65.60
2019-03-10T01:33:20.915Z,66.01
2019-03-10T01:35:47.548Z,66.48
2019-03-10T01:38:14.368Z,66.96
2019-03-10T01:40:41.112Z,67.36
2019-03-10T01:43:07.762Z,67.36
2019-03-10T01:45:34.447Z,67.61
2019-03-10T01:48:01.003Z,67.64
2019-03-10T01:50:27.663Z,67.66
2019-03-10T01:52:54.200Z,67.70
2019-03-10T01:55:20.859Z,67.88
2019-03-10T01:57:47.417Z,68.05
2019-03-10T02:00:14.870Z,68.29
2019-03-10T02:02:41.613Z,68.46
2019-03-10T02:05:09.782Z,68.50
2019-03-10T02:07:36.442Z,68.79
2019-03-10T02:10:04.144Z,68.92
2019-03-10T02:12:30.780Z,68.88
2019-03-10T02:14:57.440Z,69.09
2019-03-10T02:17:24.127Z,69.09
2019-03-10T02:19:51.789Z,69.23
2019-03-10T02:22:18.342Z,69.40
2019-03-10T02:24:45.109Z,69.49
2019-03-10T02:27:11.789Z,69.57
2019-03-10T02:29:38.346Z,69.72
2019-03-10T02:32:05.021Z,70.12
2019-03-10T02:34:31.611Z,70.55
2019-03-10T02:36:58.155Z,70.60
2019-03-10T02:39:25.026Z,71.00
2019-03-10T02:41:51.678Z,71.08
2019-03-10T02:44:18.401Z,71.17
2019-03-10T02:46:44.968Z,71.46
2019-03-10T02:49:11.611Z,71.59
2019-03-10T02:51:38.284Z,71.80
2019-03-10T02:54:04.852Z,71.93
2019-03-10T02:56:31.408Z,72.03
2019-03-10T02:58:58.138Z,72.16
2019-03-10T03:01:24.737Z,72.05
2019-03-10T03:03:51.282Z,72.18
2019-03-10T03:06:17.966Z,72.12
2019-03-10T03:08:44.522Z,72.14
2019-03-10T03:11:11.251Z,72.03
2019-03-10T03:13:37.865Z,72.05
2019-03-10T03:16:04.446Z,72.35
2019-03-10T03:18:31.001Z,72.13
2019-03-10T03:20:57.794Z,72.19
2019-03-10T03:23:24.536Z,72.42
2019-03-10T03:25:51.188Z,72.21
2019-03-10T03:28:17.843Z,72.60
2019-03-10T03:30:44.399Z,72.46
2019-03-10T03:33:11.213Z,72.74
2019-03-10T03:35:49.458Z,72.58
2019-03-10T03:38:19.097Z,72.49
2019-03-10T03:40:48.693Z,72.65
2019-03-10T03:43:15.364Z,72.58
2019-03-10T03:45:42.208Z,72.73
2019-03-10T03:48:08.770Z,72.79
2019-03-10T03:50:35.505Z,72.90
2019-03-10T03:53:02.168Z,72.74
2019-03-10T03:55:28.989Z,72.68
2019-03-10T03:57:55.534Z,72.63
2019-03-10T04:00:22.283Z,72.53
2019-03-10T04:02:48.846Z,72.51
2019-03-10T04:05:15.523Z,72.45
2019-03-10T04:07:42.178Z,72.45
2019-03-10T04:10:08.833Z,72.41
2019-03-10T04:12:35.491Z,72.81
2019-03-10T04:15:02.090Z,72.76
2019-03-10T04:17:28.864Z,72.77
2019-03-10T04:19:55.499Z,72.50
2019-03-10T04:22:22.212Z,72.83
2019-03-10T04:24:48.783Z,73.09
2019-03-10T04:27:15.422Z,73.00
2019-03-10T04:29:42.086Z,72.70
2019-03-10T04:32:08.624Z,72.73
2019-03-10T04:34:35.188Z,72.34
2019-03-10T04:37:01.893Z,71.96
2019-03-10T04:39:28.436Z,71.77
2019-03-10T04:41:55.188Z,71.61
2019-03-10T04:44:21.769Z,71.42
2019-03-10T04:46:48.395Z,71.36
2019-03-10T04:49:15.079Z,71.19
2019-03-10T04:51:41.753Z,71.19
2019-03-10T04:54:08.471Z,71.55
2019-03-10T04:56:54.694Z,71.54
2019-03-10T04:59:21.229Z,71.50
2019-03-10T05:01:47.812Z,71.56
2019-03-10T05:04:14.478Z,71.50
2019-03-10T05:06:41.119Z,71.43
2019-03-10T05:09:09.439Z,71.66
2019-03-10T05:11:36.383Z,71.75
2019-03-10T05:14:03.129Z,71.98
2019-03-10T05:16:30.008Z,71.87
2019-03-10T05:18:56.664Z,71.79
2019-03-10T05:21:23.335Z,71.92
2019-03-10T05:23:50.077Z,72.04
2019-03-10T05:26:16.732Z,72.12
2019-03-10T05:28:44.857Z,72.37
2019-03-10T05:31:11.639Z,73.09
2019-03-10T05:33:38.323Z,73.73
2019-03-10T05:36:04.887Z,73.76
2019-03-10T05:38:31.407Z,73.68
2019-03-10T05:40:58.054Z,74.54
2019-03-10T05:43:24.625Z,74.52
2019-03-10T05:45:51.264Z,74.82
2019-03-10T05:48:17.949Z,74.68
2019-03-10T05:50:44.641Z,75.09
2019-03-10T05:53:11.418Z,75.55
2019-03-10T05:55:38.309Z,76.16
2019-03-10T05:58:04.987Z,76.92
2019-03-10T06:00:41.777Z,78.18
2019-03-10T06:03:00.476Z,78.81
2019-03-10T06:05:27.161Z,79.79
2019-03-10T06:07:53.717Z,81.02
2019-03-10T06:10:20.412Z,82.30
2019-03-10T06:12:47.006Z,83.98
2019-03-10T06:15:13.559Z,84.92
2019-03-10T06:17:40.123Z,85.50
2019-03-10T06:20:06.944Z,86.57
2019-03-10T06:22:33.535Z,87.01
2019-03-10T06:25:00.382Z,87.56
2019-03-10T06:27:26.961Z,88.09
2019-03-10T06:29:53.701Z,88.84
2019-03-10T06:32:20.386Z,89.02
2019-03-10T06:34:47.157Z,89.38
2019-03-10T06:37:15.041Z,89.76
2019-03-10T06:39:41.629Z,90.11
2019-03-10T06:42:08.489Z,90.49
2019-03-10T06:44:35.149Z,90.82
2019-03-10T06:47:02.048Z,90.88
2019-03-10T06:49:28.621Z,91.25
2019-03-10T06:51:55.314Z,91.64
2019-03-10T06:54:21.978Z,91.80
2019-03-10T06:56:48.616Z,91.99
2019-03-10T06:59:15.332Z,92.17
2019-03-10T07:01:43.120Z,92.39
2019-03-10T07:04:09.849Z,92.49
2019-03-10T07:06:36.723Z,92.58
2019-03-10T07:09:04.446Z,92.74
2019-03-10T07:11:31.197Z,92.76
2019-03-10T07:13:57.870Z,92.94
2019-03-10T07:16:24.533Z,92.91
2019-03-10T07:18:51.091Z,93.02
2019-03-10T07:21:17.685Z,93.14
2019-03-10T07:23:44.462Z,93.29
2019-03-10T07:26:11.257Z,93.38
2019-03-10T07:29:01.180Z,93.50
2019-03-10T07:31:32.163Z,93.58
2019-03-10T07:34:17.348Z,93.62
2019-03-10T07:37:02.864Z,93.67
2019-03-10T07:39:51.837Z,93.82
2019-03-10T07:42:33.164Z,93.91
2019-03-10T07:45:37.777Z,93.96
2019-03-10T07:48:12.647Z,94.08
2019-03-10T07:50:59.553Z,94.16
2019-03-10T07:53:51.708Z,94.22
2019-03-10T07:56:38.042Z,94.33
2019-03-10T07:59:17.348Z,94.40
2019-03-10T08:02:21.640Z,94.46
2019-03-10T08:04:56.056Z,94.51
2019-03-10T08:07:28.696Z,94.59
2019-03-10T08:10:18.272Z,94.67
2019-03-10T08:13:16.179Z,94.71
2019-03-10T08:16:11.441Z,94.77
2019-03-10T08:18:46.646Z,94.81
2019-03-10T08:21:29.945Z,94.87
2019-03-10T08:24:12.271Z,94.88
2019-03-10T08:26:46.552Z,94.91
2019-03-10T08:29:31.758Z,94.94
2019-03-10T08:32:10.163Z,94.90
2019-03-10T08:34:55.047Z,94.89
2019-03-10T08:37:39.932Z,94.89
2019-03-10T08:40:40.228Z,94.95
2019-03-10T08:43:22.030Z,94.97
2019-03-10T08:46:14.080Z,94.94
2019-03-10T08:49:15.695Z,94.90
2019-03-10T08:52:03.888Z,94.91
2019-03-10T08:54:39.396Z,94.88
2019-03-10T08:57:24.360Z,94.93
2019-03-10T09:00:10.848Z,94.94
2019-03-10T09:03:07.488Z,94.95
2019-03-10T09:05:56.374Z,94.96
2019-03-10T09:08:40.598Z,94.98
2019-03-10T09:11:25.554Z,95.00
2019-03-10T09:14:27.471Z,95.06
2019-03-10T09:17:15.353Z,95.09
2019-03-10T09:20:03.092Z,95.10
2019-03-10T09:22:47.989Z,95.12
2019-03-10T09:25:23.761Z,95.19
2019-03-10T09:28:06.709Z,95.20
2019-03-10T09:30:44.447Z,95.25
2019-03-10T09:33:17.165Z,95.32
2019-03-10T09:36:05.532Z,95.37
2019-03-10T09:38:51.857Z,95.35
2019-03-10T09:41:28.272Z,95.40
2019-03-10T09:44:14.628Z,95.47
2019-03-10T09:46:49.426Z,95.47
2019-03-10T09:49:41.965Z,95.47
2019-03-10T09:52:31.066Z,95.52
2019-03-10T09:55:17.510Z,95.53
2019-03-10T09:58:09.530Z,95.48
2019-03-10T10:00:54.440Z,95.51
2019-03-10T10:03:43.853Z,95.52
2019-03-10T10:06:23.586Z,95.54
2019-03-10T10:09:01.823Z,95.49
2019-03-10T10:11:43.229Z,95.48
2019-03-10T10:14:32.241Z,95.50
2019-03-10T10:17:03.885Z,95.54
2019-03-10T10:19:52.356Z,95.56
2019-03-10T10:22:26.871Z,95.55
2019-03-10T10:25:22.457Z,95.60
2019-03-10T10:27:56.662Z,95.57
2019-03-10T10:30:45.112Z,95.47
2019-03-10T10:33:34.374Z,95.51
2019-03-10T10:36:38.697Z,95.41
2019-03-10T10:39:25.065Z,95.35
2019-03-10T10:42:18.378Z,95.12
2019-03-10T10:45:16.673Z,94.98
2019-03-10T10:47:57.213Z,94.72
2019-03-10T10:50:43.798Z,94.54
2019-03-10T10:53:35.148Z,94.40
2019-03-10T10:56:21.983Z,93.99
2019-03-10T10:59:23.602Z,93.56
2019-03-10T11:02:15.662Z,92.93
2019-03-10T11:05:00.654Z,91.87
2019-03-10T11:07:51.091Z,91.05
2019-03-10T11:10:34.212Z,90.82
2019-03-10T11:13:38.542Z,90.04
2019-03-10T11:16:10.856Z,89.41
2019-03-10T11:18:59.079Z,88.95
2019-03-10T11:21:54.177Z,88.69
2019-03-10T11:24:39.437Z,88.63
2019-03-10T11:27:11.797Z,89.25
2019-03-10T11:29:52.786Z,89.47
2019-03-10T11:32:41.722Z,88.83
2019-03-10T11:35:18.939Z,88.42
2019-03-10T11:38:03.578Z,88.17
2019-03-10T11:40:49.897Z,87.87
2019-03-10T11:43:27.222Z,88.08
2019-03-10T11:46:21.721Z,88.36
2019-03-10T11:49:11.129Z,88.70
2019-03-10T11:51:53.389Z,89.06
2019-03-10T11:54:25.991Z,88.52
2019-03-10T11:57:15.454Z,88.58
2019-03-10T11:59:55.858Z,88.78
2019-03-10T12:02:32.177Z,86.89
2019-03-10T12:05:22.942Z,84.64
2019-03-10T12:08:11.127Z,82.71
2019-03-10T12:10:37.867Z,78.67
2019-03-10T12:13:04.645Z,73.44
2019-03-10T12:15:31.300Z,69.83
2019-03-10T12:17:58.035Z,69.92
2019-03-10T12:20:24.824Z,70.02
2019-03-10T12:22:51.587Z,70.62
2019-03-10T12:25:18.421Z,71.07
2019-03-10T12:27:45.200Z,68.20
2019-03-10T12:30:11.985Z,66.98
2019-03-10T12:32:38.637Z,64.98
2019-03-10T12:35:05.428Z,64.12
2019-03-10T12:37:32.012Z,65.66
2019-03-10T12:39:58.804Z,66.77
2019-03-10T12:42:25.631Z,67.87
2019-03-10T12:44:52.224Z,69.34
2019-03-10T12:47:18.885Z,70.26
2019-03-10T12:49:45.542Z,72.19
2019-03-10T12:52:12.102Z,74.90
2019-03-10T12:54:38.803Z,75.46
2019-03-10T12:57:05.349Z,76.64
2019-03-10T12:59:31.959Z,77.49
2019-03-10T13:01:58.652Z,76.71
2019-03-10T13:04:25.245Z,76.75
2019-03-10T13:06:52.021Z,75.71
2019-03-10T13:09:18.855Z,74.73
2019-03-10T13:11:46.460Z,75.34
2019-03-10T13:14:13.064Z,72.88
2019-03-10T13:16:39.832Z,72.15
2019-03-10T13:19:06.484Z,72.75
2019-03-10T13:21:33.217Z,71.77
2019-03-10T13:23:59.944Z,71.90
2019-03-10T13:26:26.647Z,71.50
2019-03-10T13:28:53.310Z,70.22
2019-03-10T13:31:19.990Z,69.49
2019-03-10T13:33:46.568Z,68.59
2019-03-10T13:36:13.259Z,69.91
2019-03-10T13:38:40.025Z,69.42
2019-03-10T13:41:06.583Z,68.66
2019-03-10T13:43:33.266Z,68.79
2019-03-10T13:45:59.947Z,68.01
2019-03-10T13:48:26.505Z,67.92
2019-03-10T13:50:53.240Z,68.95
2019-03-10T13:53:19.999Z,69.73
2019-03-10T13:55:46.709Z,70.94
2019-03-10T13:58:13.542Z,70.44
2019-03-10T14:00:40.289Z,70.89
2019-03-10T14:03:06.963Z,72.46
2019-03-10T14:05:33.660Z,74.90
2019-03-10T14:08:00.336Z,74.78
2019-03-10T14:10:27.125Z,74.84
2019-03-10T14:12:53.793Z,75.10
2019-03-10T14:15:20.431Z,74.19
2019-03-10T14:17:47.101Z,72.73
2019-03-10T14:20:14.239Z,70.34
2019-03-10T14:22:41.031Z,69.92
2019-03-10T14:25:07.916Z,69.26
2019-03-10T14:27:35.617Z,68.31
2019-03-10T14:30:02.950Z,66.86
2019-03-10T14:32:29.508Z,66.80
2019-03-10T14:34:56.207Z,66.29
2019-03-10T14:37:23.058Z,65.72
2019-03-10T14:39:49.742Z,65.94
2019-03-10T14:42:16.427Z,64.48
2019-03-10T14:44:43.203Z,63.68
2019-03-10T14:47:10.033Z,62.81
2019-03-10T14:49:36.751Z,62.37
2019-03-10T14:52:03.777Z,60.83
2019-03-10T14:54:30.533Z,60.40
2019-03-10T14:56:57.389Z,60.48
2019-03-10T14:59:24.203Z,60.23
2019-03-10T15:01:51.031Z,62.58
2019-03-10T15:04:18.010Z,62.45
2019-03-10T15:06:46.081Z,63.27
2019-03-10T15:09:15.003Z,62.72
2019-03-10T15:11:41.909Z,60.45
2019-03-10T15:14:08.747Z,55.87
2019-03-10T15:16:36.722Z,52.54
2019-03-10T15:19:03.460Z,49.35
2019-03-10T15:21:31.277Z,48.77
2019-03-10T15:23:58.115Z,48.48
2019-03-10T15:26:24.939Z,50.36
2019-03-10T15:28:51.673Z,51.03
2019-03-10T15:31:18.362Z,50.77
2019-03-10T15:33:45.164Z,50.05
2019-03-10T15:36:19.943Z,50.27
2019-03-10T15:38:40.549Z,49.43
2019-03-10T15:41:07.396Z,48.79
2019-03-10T15:43:34.165Z,50.44
2019-03-10T15:46:00.864Z,49.42
2019-03-10T15:48:27.568Z,49.12
2019-03-10T15:50:55.336Z,49.51
2019-03-10T15:53:22.158Z,49.49
2019-03-10T15:55:48.982Z,49.84
2019-03-10T15:58:15.688Z,50.96
2019-03-10T16:00:44.579Z,51.35
2019-03-10T16:03:11.255Z,51.68
2019-03-10T16:05:38.050Z,50.56
2019-03-10T16:08:04.830Z,50.12
2019-03-10T16:10:31.491Z,52.85
2019-03-10T16:12:58.245Z,50.94
2019-03-10T16:15:24.955Z,51.56
2019-03-10T16:17:51.638Z,50.98
2019-03-10T16:20:18.419Z,50.14
2019-03-10T16:22:45.107Z,50.34
2019-03-10T16:25:12.029Z,51.07
2019-03-10T16:27:38.924Z,49.66
2019-03-10T16:30:08.301Z,49.73
2019-03-10T16:32:34.984Z,50.37
2019-03-10T16:35:01.871Z,50.09
2019-03-10T16:37:35.684Z,50.41
2019-03-10T16:40:03.461Z,50.37
2019-03-10T16:42:30.236Z,49.24
2019-03-10T16:44:56.999Z,49.52
2019-03-10T16:47:23.937Z,50.09
2019-03-10T16:49:50.645Z,50.54
2019-03-10T16:52:17.432Z,49.36
2019-03-10T16:54:45.276Z,50.10
2019-03-10T16:57:12.260Z,50.12
2019-03-10T16:59:39.028Z,49.36
2019-03-10T17:02:05.819Z,49.70
2019-03-10T17:04:32.608Z,47.96
2019-03-10T17:06:59.489Z,47.77
2019-03-10T17:09:26.174Z,46.66
2019-03-10T17:11:53.009Z,46.79
2019-03-10T17:14:19.857Z,47.52
2019-03-10T17:16:46.706Z,46.82
2019-03-10T17:19:13.780Z,47.11
2019-03-10T17:21:42.116Z,47.42
2019-03-10T17:24:08.958Z,48.32
2019-03-10T17:26:35.796Z,48.93
2019-03-10T17:29:02.576Z,48.36
2019-03-10T17:31:29.380Z,49.03
2019-03-10T17:33:56.133Z,47.91
2019-03-10T17:36:22.784Z,47.35
2019-03-10T17:38:49.581Z,46.74
2019-03-10T17:41:16.267Z,47.25
2019-03-10T17:43:42.982Z,47.16
2019-03-10T17:46:10.008Z,46.83
2019-03-10T17:48:36.816Z,46.65
2019-03-10T17:51:03.782Z,47.13
2019-03-10T17:53:30.329Z,47.11
2019-03-10T17:55:57.322Z,46.20
2019-03-10T17:58:24.342Z,46.70
2019-03-10T18:00:53.032Z,46.46
2019-03-10T18:03:19.945Z,47.08
2019-03-10T18:05:46.631Z,46.96
2019-03-10T18:08:13.532Z,46.62
2019-03-10T18:10:40.262Z,46.44
2019-03-10T18:13:06.997Z,46.79
2019-03-10T18:15:34.859Z,46.40
2019-03-10T18:18:01.632Z,45.83
2019-03-10T18:20:28.288Z,45.22
2019-03-10T18:22:55.038Z,44.92
2019-03-10T18:25:21.775Z,44.42
2019-03-10T18:27:48.672Z,44.91
2019-03-10T18:30:15.926Z,44.73
2019-03-10T18:32:42.847Z,45.11
2019-03-10T18:35:09.437Z,45.45
2019-03-10T18:37:36.577Z,46.05
2019-03-10T18:40:04.247Z,46.71
2019-03-10T18:42:31.029Z,47.07
2019-03-10T18:44:57.673Z,46.14
2019-03-10T18:47:24.432Z,45.18
2019-03-10T18:49:51.150Z,45.00
2019-03-10T18:52:18.191Z,44.64
2019-03-10T18:54:44.941Z,44.66
2019-03-10T18:57:11.635Z,45.16
2019-03-10T18:59:38.341Z,45.72
2019-03-10T19:02:05.040Z,46.00
2019-03-10T19:04:31.696Z,46.08
2019-03-10T19:06:58.488Z,45.60
2019-03-10T19:09:25.301Z,46.20
2019-03-10T19:11:52.409Z,46.29
2019-03-10T19:14:19.269Z,46.08
2019-03-10T19:16:46.113Z,44.74
2019-03-10T19:19:12.715Z,44.89
2019-03-10T19:21:39.463Z,43.79
2019-03-10T19:24:06.083Z,44.46
2019-03-10T19:26:32.820Z,44.62
2019-03-10T19:28:59.522Z,44.66
2019-03-10T19:31:26.214Z,44.79
2019-03-10T19:33:52.910Z,44.87
2019-03-10T19:36:19.565Z,45.72
2019-03-10T19:38:46.345Z,44.33
2019-03-10T19:41:13.106Z,44.21
2019-03-10T19:43:39.880Z,44.87
2019-03-10T19:46:06.632Z,44.38
2019-03-10T19:48:33.514Z,44.74
2019-03-10T19:51:00.133Z,44.27
2019-03-10T19:53:26.806Z,44.65
2019-03-10T19:55:53.552Z,45.06
2019-03-10T19:58:20.273Z,45.25
2019-03-10T20:00:47.030Z,45.29
2019-03-10T20:03:13.628Z,45.76
2019-03-10T20:05:40.343Z,45.81
2019-03-10T20:08:06.926Z,46.76
2019-03-10T20:10:33.542Z,46.42
2019-03-10T20:13:00.352Z,47.61
2019-03-10T20:15:27.093Z,47.31
2019-03-10T20:17:53.916Z,47.34
2019-03-10T20:20:22.062Z,48.01
2019-03-10T20:22:48.906Z,47.95
2019-03-10T20:25:16.011Z,49.35
2019-03-10T20:27:42.837Z,52.67
2019-03-10T20:30:14.854Z,56.55
2019-03-10T20:32:41.614Z,54.98
2019-03-10T20:35:08.462Z,55.47
2019-03-10T20:37:35.151Z,56.67
2019-03-10T20:40:02.246Z,56.16
2019-03-10T20:42:28.930Z,55.19
2019-03-10T20:44:55.598Z,54.77
2019-03-10T20:47:22.515Z,55.56
2019-03-10T20:49:49.376Z,55.48
2019-03-10T20:52:18.240Z,55.10
2019-03-10T20:54:45.019Z,55.02
2019-03-10T20:57:11.792Z,55.31
2019-03-10T20:59:38.706Z,54.32
2019-03-10T21:02:05.427Z,55.36
2019-03-10T21:04:32.176Z,54.57
2019-03-10T21:06:59.024Z,55.13
2019-03-10T21:09:27.538Z,55.51
2019-03-10T21:11:54.710Z,55.62
2019-03-10T21:14:21.592Z,55.89
2019-03-10T21:16:48.513Z,56.95
2019-03-10T21:19:15.282Z,56.05
2019-03-10T21:21:42.013Z,56.03
2019-03-10T21:24:08.794Z,56.38
2019-03-10T21:26:35.614Z,56.40
2019-03-10T21:29:03.723Z,57.00
2019-03-10T21:31:30.547Z,57.08
2019-03-10T21:33:57.421Z,56.92
2019-03-10T21:36:24.269Z,57.28
2019-03-10T21:38:50.985Z,58.15
2019-03-10T21:41:17.811Z,63.31
2019-03-10T21:43:44.586Z,64.96
2019-03-10T21:46:11.410Z,64.14
2019-03-10T21:48:38.154Z,63.78
2019-03-10T21:51:04.822Z,64.80
2019-03-10T21:53:31.618Z,65.39
2019-03-10T21:55:58.297Z,65.60
2019-03-10T21:58:25.111Z,65.10
2019-03-10T22:00:51.905Z,64.94
2019-03-10T22:03:18.639Z,65.33
2019-03-10T22:05:45.427Z,65.85
2019-03-10T22:08:12.280Z,65.60
2019-03-10T22:10:39.059Z,64.57
2019-03-10T22:13:06.793Z,64.99
2019-03-10T22:15:41.694Z,64.07
2019-03-10T22:18:03.277Z,64.23
2019-03-10T22:20:31.053Z,63.42
2019-03-10T22:22:57.760Z,63.72
2019-03-10T22:25:24.604Z,63.99
2019-03-10T22:27:51.375Z,64.53
2019-03-10T22:30:18.962Z,64.20
2019-03-10T22:32:45.769Z,64.51
2019-03-10T22:35:12.596Z,64.62
2019-03-10T22:37:39.150Z,64.22
2019-03-10T22:40:06.767Z,63.96
2019-03-10T22:42:33.467Z,64.04
2019-03-10T22:45:00.353Z,64.71
2019-03-10T22:47:27.037Z,65.04
2019-03-10T22:49:53.867Z,65.66
2019-03-10T22:52:20.630Z,66.94
2019-03-10T22:54:47.412Z,67.81
2019-03-10T22:57:15.283Z,68.98
2019-03-10T22:59:41.825Z,68.95
2019-03-10T23:02:08.465Z,69.80
2019-03-10T23:04:35.054Z,69.53
2019-03-10T23:07:01.732Z,69.47
2019-03-10T23:09:28.428Z,69.91
2019-03-10T23:11:55.057Z,69.90
2019-03-10T23:14:21.808Z,69.82
2019-03-10T23:16:48.621Z,69.88
2019-03-10T23:19:15.411Z,70.17
2019-03-10T23:21:42.054Z,69.96
2019-03-10T23:24:08.687Z,69.83
2019-03-10T23:26:35.323Z,70.07
2019-03-10T23:29:02.008Z,70.02
2019-03-10T23:31:28.710Z,71.02
2019-03-10T23:33:55.296Z,73.17
2019-03-10T23:36:22.117Z,74.43
2019-03-10T23:38:48.933Z,74.99
2019-03-10T23:41:15.617Z,74.92
2019-03-10T23:43:42.191Z,75.23
2019-03-10T23:46:08.831Z,75.24
2019-03-10T23:48:35.379Z,75.77
2019-03-10T23:51:02.135Z,76.64
2019-03-10T23:53:28.878Z,77.77
2019-03-10T23:55:55.422Z,76.61
2019-03-10T23:58:22.123Z,75.69
